createdAt,value
2022-09-26T00:01:54.744Z,13.09
2022-09-26T00:04:47.177Z,13.09
2022-09-26T00:07:42.077Z,13.11
2022-09-26T00:10:34.871Z,13.13
2022-09-26T00:13:28.097Z,13.15
2022-09-26T00:16:20.640Z,13.19
2022-09-26T00:19:16.893Z,13.20
2022-09-26T00:22:11.075Z,13.19
2022-09-26T00:25:04.875Z,13.18
2022-09-26T00:27:56.869Z,13.15
2022-09-26T00:30:51.307Z,13.09
2022-09-26T00:33:46.843Z,13.04
2022-09-26T00:36:39.445Z,13.01
2022-09-26T00:39:31.639Z,13.00
2022-09-26T00:42:29.019Z,13.02
2022-09-26T00:45:26.559Z,13.02
2022-09-26T00:48:06.903Z,13.03
2022-09-26T00:51:00.465Z,13.03
2022-09-26T00:53:54.425Z,13.04
2022-09-26T00:56:50.905Z,13.06
2022-09-26T00:59:46.663Z,13.07
2022-09-26T01:02:42.566Z,13.06
2022-09-26T01:05:36.191Z,13.05
2022-09-26T01:08:33.905Z,13.04
2022-09-26T01:11:18.616Z,13.04
2022-09-26T01:14:13.241Z,13.05
2022-09-26T01:17:06.343Z,13.06
2022-09-26T01:20:09.212Z,13.06
2022-09-26T01:23:20.457Z,13.07
2022-09-26T01:26:50.614Z,13.09
2022-09-26T01:30:05.734Z,13.11
2022-09-26T01:33:25.677Z,13.13
2022-09-26T01:36:38.653Z,13.18
2022-09-26T01:39:58.579Z,13.22
2022-09-26T01:43:04.795Z,13.22
2022-09-26T01:46:07.794Z,13.21
2022-09-26T01:49:11.262Z,13.20
2022-09-26T01:52:10.003Z,13.20
2022-09-26T01:55:12.429Z,13.23
2022-09-26T01:58:11.317Z,13.27
2022-09-26T02:01:09.327Z,13.31
2022-09-26T02:04:06.063Z,13.35
2022-09-26T02:07:07.216Z,13.35
2022-09-26T02:10:09.006Z,13.27
2022-09-26T02:13:08.438Z,13.22
2022-09-26T02:16:08.401Z,13.22
2022-09-26T02:19:05.591Z,13.22
2022-09-26T02:21:59.827Z,13.21
2022-09-26T02:24:51.080Z,13.22
2022-09-26T02:27:45.337Z,13.27
2022-09-26T02:30:42.097Z,13.33
2022-09-26T02:33:34.389Z,13.39
2022-09-26T02:36:26.877Z,13.43
2022-09-26T02:39:19.212Z,13.45
2022-09-26T02:42:21.912Z,13.45
2022-09-26T02:45:29.626Z,13.43
2022-09-26T02:48:37.466Z,13.36
2022-09-26T02:51:47.802Z,13.32
2022-09-26T02:54:50.013Z,13.28
2022-09-26T02:57:43.314Z,13.21
2022-09-26T03:00:52.308Z,13.20
2022-09-26T03:03:45.968Z,13.19
2022-09-26T03:06:43.179Z,13.16
2022-09-26T03:09:37.192Z,13.13
2022-09-26T03:12:39.201Z,13.12
2022-09-26T03:15:27.484Z,13.12
2022-09-26T03:18:24.659Z,13.13
2022-09-26T03:21:16.947Z,13.12
2022-09-26T03:24:10.940Z,13.10
2022-09-26T03:27:05.333Z,13.02
2022-09-26T03:29:59.496Z,12.90
2022-09-26T03:32:51.709Z,12.85
2022-09-26T03:35:46.003Z,12.81
2022-09-26T03:38:38.944Z,12.78
2022-09-26T03:41:31.072Z,12.73
2022-09-26T03:44:24.434Z,12.67
2022-09-26T03:47:19.308Z,12.60
2022-09-26T03:50:18.646Z,12.51
2022-09-26T03:53:10.856Z,12.39
2022-09-26T03:56:08.271Z,12.24
2022-09-26T03:59:00.621Z,12.10
2022-09-26T04:01:54.985Z,12.00
2022-09-26T04:04:47.283Z,11.94
2022-09-26T04:07:39.551Z,11.89
2022-09-26T04:10:33.553Z,11.85
2022-09-26T04:13:50.216Z,11.82
2022-09-26T04:16:38.508Z,11.81
2022-09-26T04:19:33.664Z,11.83
2022-09-26T04:22:26.043Z,11.85
2022-09-26T04:25:18.506Z,11.82
2022-09-26T04:28:00.779Z,11.82
2022-09-26T04:30:53.302Z,11.86
2022-09-26T04:33:46.167Z,11.93
2022-09-26T04:36:39.392Z,12.03
2022-09-26T04:39:31.682Z,12.14
2022-09-26T04:42:26.076Z,12.25
2022-09-26T04:45:18.569Z,12.34
2022-09-26T04:48:11.448Z,12.43
2022-09-26T04:51:13.786Z,12.41
2022-09-26T04:54:01.639Z,12.43
2022-09-26T04:56:52.474Z,12.46
2022-09-26T04:59:46.360Z,12.50
2022-09-26T05:02:42.682Z,12.55
2022-09-26T05:05:34.804Z,12.61
2022-09-26T05:08:27.177Z,12.65
2022-09-26T05:11:21.603Z,12.71
2022-09-26T05:14:13.651Z,12.78
2022-09-26T05:17:07.049Z,12.88
2022-09-26T05:20:01.366Z,12.95
2022-09-26T05:22:53.526Z,13.00
2022-09-26T05:26:03.541Z,13.06
2022-09-26T05:28:57.562Z,13.10
2022-09-26T05:31:51.664Z,13.15
2022-09-26T05:34:44.086Z,13.22
2022-09-26T05:37:37.318Z,13.29
2022-09-26T05:40:47.495Z,13.37
2022-09-26T05:43:35.229Z,13.50
2022-09-26T05:46:28.411Z,13.62
2022-09-26T05:49:20.596Z,13.69
2022-09-26T05:52:13.120Z,13.74
2022-09-26T05:55:05.706Z,13.80
2022-09-26T05:58:11.388Z,13.87
2022-09-26T06:01:08.003Z,13.97
2022-09-26T06:04:00.440Z,14.07
2022-09-26T06:06:52.650Z,14.19
2022-09-26T06:09:44.968Z,14.27
2022-09-26T06:12:50.710Z,14.30
2022-09-26T06:15:43.692Z,14.36
2022-09-26T06:18:36.675Z,14.38
2022-09-26T06:21:29.947Z,14.39
2022-09-26T06:24:24.853Z,14.37
2022-09-26T06:27:17.116Z,14.37
2022-09-26T06:30:12.909Z,14.35
2022-09-26T06:33:05.510Z,14.36
2022-09-26T06:36:04.881Z,14.38
2022-09-26T06:38:57.447Z,14.42
2022-09-26T06:41:50.118Z,14.45
2022-09-26T06:44:59.582Z,14.47
2022-09-26T06:47:51.832Z,14.49
2022-09-26T06:50:42.144Z,14.46
2022-09-26T06:53:34.943Z,14.53
2022-09-26T06:56:27.306Z,14.58
2022-09-26T06:59:19.576Z,14.65
2022-09-26T07:02:13.197Z,14.74
2022-09-26T07:05:17.764Z,14.82
2022-09-26T07:08:10.355Z,14.88
2022-09-26T07:11:28.212Z,14.92
2022-09-26T07:14:16.999Z,14.86
2022-09-26T07:17:09.658Z,14.84
2022-09-26T07:20:10.318Z,14.87
2022-09-26T07:23:17.247Z,14.93
2022-09-26T07:26:10.530Z,14.99
2022-09-26T07:28:56.773Z,15.02
2022-09-26T07:31:50.047Z,15.05
2022-09-26T07:34:44.158Z,15.11
2022-09-26T07:37:36.603Z,15.09
2022-09-26T07:40:23.296Z,15.09
2022-09-26T07:43:18.554Z,15.16
2022-09-26T07:46:31.946Z,15.25
2022-09-26T07:49:33.684Z,15.32
2022-09-26T07:52:28.173Z,15.39
2022-09-26T07:55:24.265Z,15.45
2022-09-26T07:58:16.469Z,15.47
2022-09-26T08:01:20.823Z,15.53
2022-09-26T08:04:28.711Z,15.57
2022-09-26T08:07:21.248Z,15.65
2022-09-26T08:10:24.051Z,15.72
2022-09-26T08:13:26.209Z,15.76
2022-09-26T08:16:20.749Z,15.81
2022-09-26T08:19:17.437Z,15.92
2022-09-26T08:22:09.188Z,16.07
2022-09-26T08:25:02.547Z,16.24
2022-09-26T08:28:00.302Z,16.37
2022-09-26T08:30:45.059Z,16.46
2022-09-26T08:33:39.047Z,16.51
2022-09-26T08:36:32.059Z,16.65
2022-09-26T08:39:17.141Z,16.77
2022-09-26T08:42:24.252Z,16.80
2022-09-26T08:45:55.374Z,16.83
2022-09-26T08:49:04.695Z,16.89
2022-09-26T08:51:59.096Z,16.90
2022-09-26T08:54:52.711Z,16.84
2022-09-26T08:57:49.744Z,16.74
2022-09-26T09:00:42.466Z,16.67
2022-09-26T09:03:33.614Z,16.60
2022-09-26T09:06:28.357Z,16.54
2022-09-26T09:09:13.016Z,16.47
2022-09-26T09:12:24.813Z,16.36
2022-09-26T09:15:33.424Z,16.25
2022-09-26T09:18:34.646Z,16.16
2022-09-26T09:21:43.512Z,16.08
2022-09-26T09:24:51.297Z,16.01
2022-09-26T09:28:02.506Z,15.91
2022-09-26T09:30:42.099Z,15.78
2022-09-26T09:33:41.624Z,15.67
2022-09-26T09:36:48.331Z,15.59
2022-09-26T09:39:41.825Z,15.58
2022-09-26T09:52:55.673Z,15.62
2022-09-26T09:55:51.128Z,15.58
2022-09-26T09:58:56.472Z,15.57
2022-09-26T10:01:54.888Z,15.62
2022-09-26T10:04:46.849Z,15.52
2022-09-26T10:07:39.254Z,15.36
2022-09-26T10:10:39.629Z,15.25
2022-09-26T10:13:37.370Z,15.12
2022-09-26T10:16:58.614Z,15.03
2022-09-26T10:19:51.573Z,14.89
2022-09-26T10:22:46.562Z,14.78
2022-09-26T10:25:38.063Z,14.71
2022-09-26T10:28:47.161Z,14.65
2022-09-26T10:31:43.317Z,14.63
2022-09-26T10:34:41.134Z,14.68
2022-09-26T10:37:26.509Z,14.72
2022-09-26T10:40:45.572Z,14.75
2022-09-26T10:43:39.044Z,14.72
2022-09-26T10:46:32.120Z,14.66
2022-09-26T10:49:29.662Z,14.59
2022-09-26T10:52:24.637Z,14.55
2022-09-26T10:55:20.802Z,14.55
2022-09-26T10:58:22.997Z,14.51
2022-09-26T11:01:26.527Z,14.48
2022-09-26T11:04:36.778Z,14.50
2022-09-26T11:07:33.485Z,14.62
2022-09-26T11:10:32.593Z,14.77
2022-09-26T11:13:30.542Z,14.87
2022-09-26T11:16:23.144Z,14.92
2022-09-26T11:19:27.015Z,15.03
2022-09-26T11:22:26.757Z,15.13
2022-09-26T11:25:25.954Z,15.08
2022-09-26T11:28:23.899Z,15.01
2022-09-26T11:31:29.970Z,14.99
2022-09-26T11:34:27.241Z,15.00
2022-09-26T11:38:05.793Z,14.96
2022-09-26T11:41:08.370Z,14.85
2022-09-26T11:44:04.821Z,14.75
2022-09-26T11:47:11.967Z,14.67
2022-09-26T11:50:04.538Z,14.70
2022-09-26T11:53:09.853Z,14.64
2022-09-26T11:56:12.905Z,14.63
2022-09-26T11:59:07.389Z,14.68
2022-09-26T12:01:58.587Z,14.63
2022-09-26T12:05:17.933Z,14.52
2022-09-26T12:08:30.464Z,14.45
2022-09-26T12:11:26.867Z,14.49
2022-09-26T12:14:36.849Z,14.51
2022-09-26T12:17:36.416Z,14.50
2022-09-26T12:20:36.844Z,14.59
2022-09-26T12:23:35.954Z,14.69
2022-09-26T12:26:34.794Z,14.77
2022-09-26T12:29:45.545Z,14.86
2022-09-26T12:32:56.922Z,14.92
2022-09-26T12:35:58.256Z,14.97
2022-09-26T12:39:05.130Z,14.99
2022-09-26T12:42:11.207Z,15.02
2022-09-26T12:45:31.510Z,15.11
2022-09-26T12:48:47.788Z,15.30
2022-09-26T12:51:47.083Z,15.37
2022-09-26T12:54:57.282Z,15.42
2022-09-26T12:57:51.225Z,15.43
2022-09-26T13:00:56.058Z,15.42
2022-09-26T13:04:15.227Z,15.38
2022-09-26T13:07:22.634Z,15.22
2022-09-26T13:10:29.928Z,15.06
2022-09-26T13:13:25.119Z,14.93
2022-09-26T13:16:31.998Z,14.82
2022-09-26T13:19:29.427Z,14.74
2022-09-26T13:22:31.834Z,14.70
2022-09-26T13:25:30.923Z,14.66
2022-09-26T13:28:29.319Z,14.68
2022-09-26T13:31:31.809Z,14.75
2022-09-26T13:34:22.758Z,14.85
2022-09-26T13:37:28.712Z,14.93
2022-09-26T13:40:28.203Z,14.90
2022-09-26T13:43:44.534Z,14.85
2022-09-26T13:46:51.415Z,14.83
2022-09-26T13:50:05.353Z,14.86
2022-09-26T13:53:11.732Z,14.87
2022-09-26T13:56:41.877Z,14.86
2022-09-26T13:59:54.541Z,14.82
2022-09-26T14:03:24.366Z,14.88
2022-09-26T14:06:31.087Z,14.92
2022-09-26T14:09:40.849Z,14.96
2022-09-26T14:12:53.438Z,14.98
2022-09-26T14:16:06.197Z,15.01
2022-09-26T14:19:05.117Z,15.04
2022-09-26T14:22:06.135Z,15.07
2022-09-26T14:24:59.939Z,15.14
2022-09-26T14:28:10.141Z,15.12
2022-09-26T14:31:02.123Z,15.14
2022-09-26T14:34:12.727Z,15.12
2022-09-26T14:37:21.885Z,15.12
2022-09-26T14:40:28.225Z,15.19
2022-09-26T14:43:24.449Z,15.27
2022-09-26T14:46:20.913Z,15.34
2022-09-26T14:49:06.551Z,15.34
2022-09-26T14:52:07.546Z,15.36
2022-09-26T14:55:06.229Z,15.38
2022-09-26T14:58:17.887Z,15.47
2022-09-26T15:01:05.009Z,15.50
2022-09-26T15:03:37.314Z,15.53
2022-09-26T15:06:31.625Z,15.56
2022-09-26T15:09:30.324Z,15.56
2022-09-26T15:12:28.135Z,15.54
2022-09-26T15:15:36.453Z,15.47
2022-09-26T15:18:36.584Z,15.40
2022-09-26T15:21:32.913Z,15.36
2022-09-26T15:24:33.135Z,15.27
2022-09-26T15:27:29.896Z,15.16
2022-09-26T15:30:19.905Z,15.06
2022-09-26T15:33:18.876Z,15.01
2022-09-26T15:35:57.630Z,14.97
2022-09-26T15:38:50.752Z,14.95
2022-09-26T15:42:04.993Z,14.91
2022-09-26T15:44:59.656Z,14.93
2022-09-26T15:47:52.014Z,14.95
2022-09-26T15:50:40.807Z,14.96
2022-09-26T15:53:24.303Z,14.94
2022-09-26T15:56:18.594Z,14.93
2022-09-26T15:59:12.868Z,14.93
2022-09-26T16:02:18.617Z,14.91
2022-09-26T16:05:13.523Z,14.90
2022-09-26T16:08:05.886Z,14.90
2022-09-26T16:11:01.589Z,14.88
2022-09-26T16:13:56.925Z,14.86
2022-09-26T16:16:49.601Z,14.84
2022-09-26T16:19:48.924Z,14.82
2022-09-26T16:22:46.667Z,14.71
2022-09-26T16:25:34.554Z,14.61
2022-09-26T16:28:42.645Z,14.56
2022-09-26T16:31:40.462Z,14.52
2022-09-26T16:34:33.576Z,14.53
2022-09-26T16:37:25.972Z,14.58
2022-09-26T16:40:20.494Z,14.63
2022-09-26T16:43:27.315Z,14.65
2022-09-26T16:46:25.953Z,14.68
2022-09-26T16:49:35.034Z,14.68
2022-09-26T16:52:34.525Z,14.60
2022-09-26T16:55:17.233Z,14.48
2022-09-26T16:57:59.770Z,14.37
2022-09-26T17:01:09.835Z,14.28
2022-09-26T17:03:56.049Z,14.23
2022-09-26T17:06:49.314Z,14.22
2022-09-26T17:09:32.993Z,14.24
2022-09-26T17:12:25.525Z,14.25
2022-09-26T17:15:23.413Z,14.23
2022-09-26T17:18:15.835Z,14.24
2022-09-26T17:21:11.909Z,14.20
2022-09-26T17:24:05.654Z,14.15
2022-09-26T17:26:59.237Z,14.18
2022-09-26T17:29:53.617Z,14.19
2022-09-26T17:32:51.493Z,14.27
2022-09-26T17:35:44.660Z,14.34
2022-09-26T17:38:38.842Z,14.35
2022-09-26T17:41:34.461Z,14.33
2022-09-26T17:44:20.100Z,14.33
2022-09-26T17:47:14.568Z,14.34
2022-09-26T17:50:13.630Z,14.32
2022-09-26T17:53:08.137Z,14.30
2022-09-26T17:56:03.368Z,14.29
2022-09-26T17:58:47.101Z,14.26
2022-09-26T18:01:34.117Z,14.21
2022-09-26T18:04:28.887Z,14.09
2022-09-26T18:07:22.691Z,14.00
2022-09-26T18:10:21.702Z,13.92
2022-09-26T18:13:21.477Z,13.85
2022-09-26T18:16:15.050Z,13.78
2022-09-26T18:19:09.694Z,13.72
2022-09-26T18:22:03.552Z,13.68
2022-09-26T18:25:04.761Z,13.68
2022-09-26T18:27:58.084Z,13.72
2022-09-26T18:30:56.865Z,13.80
2022-09-26T18:33:52.472Z,13.89
2022-09-26T18:36:45.215Z,13.95
2022-09-26T18:39:37.631Z,13.98
2022-09-26T18:42:30.203Z,14.02
2022-09-26T18:45:28.871Z,14.03
2022-09-26T18:48:22.625Z,13.99
2022-09-26T18:51:09.167Z,13.94
2022-09-26T18:54:07.257Z,13.95
2022-09-26T18:57:20.659Z,13.95
2022-09-26T19:00:14.897Z,13.95
2022-09-26T19:03:11.278Z,13.94
2022-09-26T19:05:47.038Z,13.91
2022-09-26T19:08:43.691Z,13.84
2022-09-26T19:11:32.714Z,13.81
2022-09-26T19:14:28.270Z,13.79
2022-09-26T19:17:20.596Z,13.81
2022-09-26T19:20:12.719Z,13.83
2022-09-26T19:23:05.900Z,13.85
2022-09-26T19:25:58.132Z,13.87
2022-09-26T19:28:51.064Z,13.83
2022-09-26T19:31:44.142Z,13.78
2022-09-26T19:34:36.713Z,13.77
2022-09-26T19:37:29.365Z,13.71
2022-09-26T19:40:26.416Z,13.62
2022-09-26T19:43:20.729Z,13.53
2022-09-26T19:46:18.765Z,13.45
2022-09-26T19:49:15.740Z,13.32
2022-09-26T19:52:11.221Z,13.16
2022-09-26T19:55:03.839Z,13.02
2022-09-26T19:57:46.351Z,12.88
2022-09-26T20:00:29.278Z,12.80
2022-09-26T20:03:23.983Z,12.73
2022-09-26T20:06:22.457Z,12.65
2022-09-26T20:09:20.098Z,12.58
2022-09-26T20:12:13.643Z,12.53
2022-09-26T20:15:10.289Z,12.45
2022-09-26T20:18:02.713Z,12.36
2022-09-26T20:20:58.210Z,12.24
2022-09-26T20:23:32.888Z,12.16
2022-09-26T20:26:30.830Z,12.12
2022-09-26T20:29:18.395Z,12.14
2022-09-26T20:32:15.268Z,12.21
2022-09-26T20:35:10.893Z,12.25
2022-09-26T20:38:07.300Z,12.28
2022-09-26T20:41:03.915Z,12.26
2022-09-26T20:44:02.127Z,12.20
2022-09-26T20:46:58.336Z,12.16
2022-09-26T20:49:57.646Z,12.11
2022-09-26T20:52:49.774Z,12.07
2022-09-26T20:55:44.354Z,12.04
2022-09-26T20:58:36.662Z,12.03
2022-09-26T21:01:30.603Z,11.99
2022-09-26T21:04:17.864Z,11.93
2022-09-26T21:07:14.732Z,11.78
2022-09-26T21:10:23.029Z,11.61
2022-09-26T21:13:15.713Z,11.42
2022-09-26T21:16:11.688Z,11.26
2022-09-26T21:19:09.323Z,11.15
2022-09-26T21:22:02.800Z,11.09
2022-09-26T21:24:58.234Z,11.05
2022-09-26T21:27:55.108Z,11.03
2022-09-26T21:30:47.334Z,10.97
2022-09-26T21:33:40.851Z,10.92
2022-09-26T21:36:37.988Z,10.95
2022-09-26T21:39:31.642Z,10.84
2022-09-26T21:42:27.468Z,10.72
2022-09-26T21:45:27.096Z,10.60
2022-09-26T21:48:20.133Z,10.58
2022-09-26T21:51:16.342Z,10.57
2022-09-26T21:54:15.220Z,10.57
2022-09-26T21:57:11.869Z,10.62
2022-09-26T22:00:08.278Z,10.68
2022-09-26T22:03:02.271Z,10.73
2022-09-26T22:05:54.815Z,10.85
2022-09-26T22:08:47.263Z,10.92
2022-09-26T22:11:40.305Z,11.01
2022-09-26T22:14:34.330Z,11.04
2022-09-26T22:17:29.403Z,11.08
2022-09-26T22:20:24.435Z,11.15
2022-09-26T22:23:16.602Z,11.28
2022-09-26T22:26:09.748Z,11.36
2022-09-26T22:28:41.825Z,11.43
2022-09-26T22:31:35.364Z,11.50
2022-09-26T22:34:27.515Z,11.53
2022-09-26T22:37:19.937Z,11.58
2022-09-26T22:40:13.016Z,11.63
2022-09-26T22:43:08.409Z,11.66
2022-09-26T22:46:06.132Z,11.69
2022-09-26T22:48:58.156Z,11.73
2022-09-26T22:51:50.276Z,11.74
2022-09-26T22:54:42.397Z,11.78
2022-09-26T22:57:34.603Z,11.85
2022-09-26T23:00:08.544Z,11.90
2022-09-26T23:03:00.668Z,11.96
2022-09-26T23:05:53.121Z,11.99
2022-09-26T23:08:45.283Z,12.03
2022-09-26T23:11:38.810Z,12.00
2022-09-26T23:14:31.754Z,11.98
2022-09-26T23:17:23.936Z,11.95
2022-09-26T23:20:16.316Z,11.93
2022-09-26T23:23:09.762Z,11.92
2022-09-26T23:26:02.175Z,11.88
2022-09-26T23:28:56.029Z,11.85
2022-09-26T23:31:48.082Z,11.90
2022-09-26T23:34:40.459Z,11.96
2022-09-26T23:37:32.814Z,12.00
2022-09-26T23:40:25.723Z,12.03
2022-09-26T23:43:18.166Z,12.01
2022-09-26T23:46:13.442Z,12.01
2022-09-26T23:49:07.291Z,12.04
2022-09-26T23:51:39.250Z,12.05
2022-09-26T23:54:31.494Z,12.12
2022-09-26T23:57:13.807Z,12.16
